Flight Track Log - Related Links

Times and Time Zones

All times are in EDT time to prevent confusion due to time zone crossing. See the AWI3551 flight status page for this flight to view local times or setup timezone preferences in your user account.

Time Position Orientation Groundspeed Altitude Reporting Facility
EDT Latitude Longitude Course Direction KTS MPH feet Rate Location/Type
Tue 06:40:53 AM 42.9167 -78.7500 174° South 158 182 1,500  Level Buffalo TRACON
Tue 06:41:23 AM 42.9000 -78.7667 216° Southwest 165 190 2,300 1,582 Climbing Buffalo TRACON
Tue 06:42:24 AM 42.8500 -78.7833 194° South 238 274 3,900 1,500 Climbing Buffalo TRACON
Tue 06:42:59 AM 42.8153 -78.7858 183° South 278 320 4,700 2,084 Climbing Cleveland Center
Tue 06:43:00 AM 42.6114 -78.6823 172° South  Level FlightAware Approximate
Tue 06:43:59 AM 42.7336 -78.7656 170° South 285 328 7,200  Level Cleveland Center
Tue 06:44:00 AM 42.5045 -78.6619 173° South  Level FlightAware Approximate
Tue 06:44:59 AM 42.6583 -78.7481 170° South 278 320 9,100  Level Cleveland Center
Tue 06:45:00 AM 42.3970 -78.6500 180° South  Level FlightAware Approximate
Tue 06:45:59 AM 42.5850 -78.7278 168° South 270 311 10,500  Level Cleveland Center
Tue 06:46:00 AM 42.2895 -78.6389 174° South  Level FlightAware Approximate
Tue 06:46:59 AM 42.4972 -78.7078 170° South 294 338 11,000  Level Cleveland Center
Tue 06:47:59 AM 42.4031 -78.6853 170° South 327 376 12,500 1,350 Climbing Cleveland Center
Tue 06:48:59 AM 42.3067 -78.6628 170° South 346 398 13,700 1,200 Climbing Cleveland Center
Tue 06:49:59 AM 42.2125 -78.6431 171° South 366 421 14,900 1,150 Climbing Cleveland Center
Tue 06:50:59 AM 42.1017 -78.6269 174° South 373 429 16,000 950 Climbing Cleveland Center
Tue 06:51:59 AM 41.9975 -78.6244 179° South 373 429 16,800 800 Climbing Cleveland Center
Tue 06:52:59 AM 41.8911 -78.6222 179° South 378 435 17,600 800 Climbing Cleveland Center
Tue 06:53:59 AM 41.7953 -78.6167 178° South 383 441 18,400 650 Climbing Cleveland Center
Tue 06:54:59 AM 41.6961 -78.5531 154° Southeast 381 438 18,900 600 Climbing Cleveland Center
Tue 06:55:59 AM 41.5989 -78.4839 152° Southeast 386 444 19,600 600 Climbing Cleveland Center
Tue 06:56:59 AM 41.4975 -78.4097 151° Southeast 398 458 20,100 482 Climbing Cleveland Center
Tue 06:58:16 AM 41.3689 -78.3186 152° Southeast 423 487 20,700 482 Climbing New York Center
Tue 06:59:16 AM 41.2694 -78.2439 151° Southeast 423 487 21,200 508 Climbing New York Center
Tue 07:00:14 AM 41.1678 -78.1719 152° Southeast 417 480 21,700 500 Climbing New York Center
Tue 07:01:16 AM 41.0658 -78.1003 152° Southeast 417 480 22,200 488 Climbing New York Center
Tue 07:02:17 AM 40.9619 -78.0258 152° Southeast 417 480 22,700 -356 Climbing New York Center
Tue 07:03:14 AM 40.8703 -77.9228 140° Southeast 417 480 21,500 -1,361 Descending New York Center
Tue 07:04:16 AM 40.7900 -77.8019 131° Southeast 429 494 20,000 -1,525 Descending New York Center
Tue 07:05:16 AM 40.7136 -77.6847 131° Southeast 434 499 18,400 -1,000 Descending New York Center
Tue 07:06:16 AM 40.6389 -77.5703 131° Southeast 405 466 18,000 -198 Descending New York Center
Tue 07:07:17 AM 40.5956 -77.4539 116° Southeast 387 445 18,000  Level New York Center
Tue 07:08:15 AM 40.5386 -77.3144 118° Southeast 398 458 18,000  Level New York Center
Tue 07:09:16 AM 40.4892 -77.1925 118° Southeast 411 473 18,000  Level New York Center
Tue 07:10:14 AM 40.4322 -77.0508 118° Southeast 405 466 18,000  Level New York Center
Tue 07:11:16 AM 40.3825 -76.9208 117° Southeast 405 466 18,000  Level New York Center
Tue 07:12:16 AM 40.3458 -76.7869 110° East 391 450 18,000  Level New York Center
Tue 07:13:17 AM 40.3164 -76.6644 107° East 386 444 18,000 -496 Level New York Center
Tue 07:14:17 AM 40.2817 -76.5228 108° East 393 452 17,000 -1,525 Descending New York Center
Tue 07:15:15 AM 40.2469 -76.3811 108° East 393 452 15,000 -1,932 Descending New York Center
Tue 07:16:15 AM 40.2131 -76.2561 110° East 373 429 13,200 -1,785 Descending New York Center
Tue 07:17:16 AM 40.1833 -76.1369 108° East 356 410 11,400 -1,672 Descending New York Center
Tue 07:18:17 AM 40.1567 -76.0317 108° East 344 396 9,800 -1,664 Descending New York Center
Tue 07:19:15 AM 40.1283 -75.9181 108° East 310 357 8,100 -893 Descending New York Center
Tue 07:20:18 AM 40.1031 -75.8267 110° East 300 345 8,000 -350 Descending New York Center
Tue 07:21:15 AM 40.0786 -75.7136 106° East 300 345 7,400 -915 Descending New York Center
Tue 07:22:16 AM 40.0764 -75.6186 92° East 294 338 6,200 -689 Descending New York Center
Tue 07:23:17 AM 40.0686 -75.5014 95° East 289 333 6,000 -99 Descending New York Center
Tue 07:24:17 AM 40.0642 -75.4061 93° East 295 339 6,000  Level New York Center
Tue 07:25:16 AM 40.0583 -75.2892 94° East 295 339 6,000  Level New York Center
Tue 07:26:16 AM 40.0433 -75.1878 101° East 295 339 6,000  Level New York Center
Tue 07:27:16 AM 40.0239 -75.0972 106° East 295 339 6,000  Level New York Center

Login

Don't have an account? Register now (free) for customized features, flight alerts, and more!